sensor_id;sensor_type;location;lat;lon;timestamp;temperature;humidity
6146;DHT22;3104;50.348;7.620;2023-04-06T00:01:40;4.70;57.60
6146;DHT22;3104;50.348;7.620;2023-04-06T00:04:06;4.90;58.90
6146;DHT22;3104;50.348;7.620;2023-04-06T00:06:33;5.20;52.90
6146;DHT22;3104;50.348;7.620;2023-04-06T00:09:00;5.10;49.60
6146;DHT22;3104;50.348;7.620;2023-04-06T00:11:26;5.00;49.10
6146;DHT22;3104;50.348;7.620;2023-04-06T00:13:51;4.90;53.50
6146;DHT22;3104;50.348;7.620;2023-04-06T00:16:18;4.80;53.50
6146;DHT22;3104;50.348;7.620;2023-04-06T00:18:43;4.80;56.80
6146;DHT22;3104;50.348;7.620;2023-04-06T00:21:12;4.80;54.90
6146;DHT22;3104;50.348;7.620;2023-04-06T00:23:39;4.60;57.20
6146;DHT22;3104;50.348;7.620;2023-04-06T00:26:04;4.40;61.80
6146;DHT22;3104;50.348;7.620;2023-04-06T00:28:30;4.30;66.90
6146;DHT22;3104;50.348;7.620;2023-04-06T00:30:56;4.30;70.00
6146;DHT22;3104;50.348;7.620;2023-04-06T00:33:24;4.30;72.50
6146;DHT22;3104;50.348;7.620;2023-04-06T00:35:50;4.20;67.80
6146;DHT22;3104;50.348;7.620;2023-04-06T00:38:16;4.30;66.80
6146;DHT22;3104;50.348;7.620;2023-04-06T00:40:42;4.20;66.10
6146;DHT22;3104;50.348;7.620;2023-04-06T00:43:09;4.20;69.40
6146;DHT22;3104;50.348;7.620;2023-04-06T00:45:37;4.10;73.50
6146;DHT22;3104;50.348;7.620;2023-04-06T00:48:03;4.20;60.80
6146;DHT22;3104;50.348;7.620;2023-04-06T00:50:29;4.10;68.10
6146;DHT22;3104;50.348;7.620;2023-04-06T00:52:55;4.20;58.80
6146;DHT22;3104;50.348;7.620;2023-04-06T00:55:21;4.20;61.20
6146;DHT22;3104;50.348;7.620;2023-04-06T00:57:46;4.30;56.80
6146;DHT22;3104;50.348;7.620;2023-04-06T01:00:13;4.10;61.40
6146;DHT22;3104;50.348;7.620;2023-04-06T01:02:38;4.30;58.40
6146;DHT22;3104;50.348;7.620;2023-04-06T01:05:05;4.40;57.00
6146;DHT22;3104;50.348;7.620;2023-04-06T01:07:30;4.60;55.60
6146;DHT22;3104;50.348;7.620;2023-04-06T01:09:56;4.70;53.50
6146;DHT22;3104;50.348;7.620;2023-04-06T01:12:22;4.50;57.20
6146;DHT22;3104;50.348;7.620;2023-04-06T01:14:48;4.10;68.40
6146;DHT22;3104;50.348;7.620;2023-04-06T01:17:13;4.10;71.00
6146;DHT22;3104;50.348;7.620;2023-04-06T01:19:39;4.00;79.20
6146;DHT22;3104;50.348;7.620;2023-04-06T01:22:06;3.80;82.80
6146;DHT22;3104;50.348;7.620;2023-04-06T01:24:32;3.80;82.50
6146;DHT22;3104;50.348;7.620;2023-04-06T01:26:57;3.60;88.60
6146;DHT22;3104;50.348;7.620;2023-04-06T01:29:23;3.60;93.20
6146;DHT22;3104;50.348;7.620;2023-04-06T01:31:49;3.40;95.30
6146;DHT22;3104;50.348;7.620;2023-04-06T01:34:14;3.40;97.50
6146;DHT22;3104;50.348;7.620;2023-04-06T01:36:40;3.50;99.90
6146;DHT22;3104;50.348;7.620;2023-04-06T01:39:06;3.40;99.90
6146;DHT22;3104;50.348;7.620;2023-04-06T01:41:32;3.50;99.90
6146;DHT22;3104;50.348;7.620;2023-04-06T01:43:58;3.50;99.90
6146;DHT22;3104;50.348;7.620;2023-04-06T01:46:23;3.30;99.90
6146;DHT22;3104;50.348;7.620;2023-04-06T01:48:49;3.30;99.90
6146;DHT22;3104;50.348;7.620;2023-04-06T01:51:15;3.50;99.90
6146;DHT22;3104;50.348;7.620;2023-04-06T01:53:41;3.50;99.90
6146;DHT22;3104;50.348;7.620;2023-04-06T01:56:07;3.30;99.90
6146;DHT22;3104;50.348;7.620;2023-04-06T01:58:33;3.20;99.90
6146;DHT22;3104;50.348;7.620;2023-04-06T02:00:58;3.10;99.90
6146;DHT22;3104;50.348;7.620;2023-04-06T02:03:24;3.10;99.90
6146;DHT22;3104;50.348;7.620;2023-04-06T02:05:50;3.00;99.90
6146;DHT22;3104;50.348;7.620;2023-04-06T02:08:15;2.90;99.90
6146;DHT22;3104;50.348;7.620;2023-04-06T02:10:41;3.00;99.90
6146;DHT22;3104;50.348;7.620;2023-04-06T02:13:06;3.10;99.90
6146;DHT22;3104;50.348;7.620;2023-04-06T02:15:32;2.90;99.90
6146;DHT22;3104;50.348;7.620;2023-04-06T02:17:59;2.90;99.90
6146;DHT22;3104;50.348;7.620;2023-04-06T02:20:24;2.70;99.90
6146;DHT22;3104;50.348;7.620;2023-04-06T02:22:50;2.80;99.90
6146;DHT22;3104;50.348;7.620;2023-04-06T02:25:16;3.00;99.90
6146;DHT22;3104;50.348;7.620;2023-04-06T02:27:42;3.00;99.90
6146;DHT22;3104;50.348;7.620;2023-04-06T02:30:08;3.10;99.90
6146;DHT22;3104;50.348;7.620;2023-04-06T02:32:34;3.20;99.90
6146;DHT22;3104;50.348;7.620;2023-04-06T02:34:59;3.20;99.90
6146;DHT22;3104;50.348;7.620;2023-04-06T02:37:25;3.20;99.90
6146;DHT22;3104;50.348;7.620;2023-04-06T02:39:51;3.00;99.90
6146;DHT22;3104;50.348;7.620;2023-04-06T02:42:17;2.90;99.90
6146;DHT22;3104;50.348;7.620;2023-04-06T02:44:43;3.00;99.90
6146;DHT22;3104;50.348;7.620;2023-04-06T02:47:09;2.90;99.90
6146;DHT22;3104;50.348;7.620;2023-04-06T02:49:35;2.80;99.90
6146;DHT22;3104;50.348;7.620;2023-04-06T02:52:02;2.90;99.90
6146;DHT22;3104;50.348;7.620;2023-04-06T02:54:28;2.90;99.90
6146;DHT22;3104;50.348;7.620;2023-04-06T02:56:53;2.90;99.90
6146;DHT22;3104;50.348;7.620;2023-04-06T02:59:19;2.70;99.90
6146;DHT22;3104;50.348;7.620;2023-04-06T03:01:45;2.50;99.90
6146;DHT22;3104;50.348;7.620;2023-04-06T03:04:10;2.50;99.90
6146;DHT22;3104;50.348;7.620;2023-04-06T03:06:36;2.40;99.90
6146;DHT22;3104;50.348;7.620;2023-04-06T03:09:02;2.70;99.90
6146;DHT22;3104;50.348;7.620;2023-04-06T03:11:27;2.70;99.90
6146;DHT22;3104;50.348;7.620;2023-04-06T03:13:53;2.60;99.90
6146;DHT22;3104;50.348;7.620;2023-04-06T03:16:19;2.50;99.90
6146;DHT22;3104;50.348;7.620;2023-04-06T03:18:45;2.60;99.90
6146;DHT22;3104;50.348;7.620;2023-04-06T03:21:15;2.50;99.90
6146;DHT22;3104;50.348;7.620;2023-04-06T03:23:42;2.40;99.90
6146;DHT22;3104;50.348;7.620;2023-04-06T03:26:07;2.30;99.90
6146;DHT22;3104;50.348;7.620;2023-04-06T03:28:33;2.70;99.90
6146;DHT22;3104;50.348;7.620;2023-04-06T03:30:59;2.50;99.90
6146;DHT22;3104;50.348;7.620;2023-04-06T03:33:24;2.40;99.90
6146;DHT22;3104;50.348;7.620;2023-04-06T03:35:53;2.40;99.90
6146;DHT22;3104;50.348;7.620;2023-04-06T03:38:18;2.30;99.90
6146;DHT22;3104;50.348;7.620;2023-04-06T03:40:44;2.40;99.90
6146;DHT22;3104;50.348;7.620;2023-04-06T03:43:10;2.10;99.90
6146;DHT22;3104;50.348;7.620;2023-04-06T03:45:36;2.20;99.90
6146;DHT22;3104;50.348;7.620;2023-04-06T03:48:02;2.10;99.90
6146;DHT22;3104;50.348;7.620;2023-04-06T03:50:27;2.10;99.90
6146;DHT22;3104;50.348;7.620;2023-04-06T03:52:53;2.10;99.90
6146;DHT22;3104;50.348;7.620;2023-04-06T03:55:18;2.00;99.90
6146;DHT22;3104;50.348;7.620;2023-04-06T03:57:44;1.90;99.90
6146;DHT22;3104;50.348;7.620;2023-04-06T04:00:10;1.80;99.90
6146;DHT22;3104;50.348;7.620;2023-04-06T04:02:36;1.80;99.90
6146;DHT22;3104;50.348;7.620;2023-04-06T04:05:02;1.80;99.90
6146;DHT22;3104;50.348;7.620;2023-04-06T04:07:28;1.80;99.90
6146;DHT22;3104;50.348;7.620;2023-04-06T04:09:54;1.80;99.90
6146;DHT22;3104;50.348;7.620;2023-04-06T04:12:19;1.90;99.90
6146;DHT22;3104;50.348;7.620;2023-04-06T04:14:45;2.00;99.90
6146;DHT22;3104;50.348;7.620;2023-04-06T04:17:11;2.10;99.90
6146;DHT22;3104;50.348;7.620;2023-04-06T04:19:36;1.90;99.90
6146;DHT22;3104;50.348;7.620;2023-04-06T04:22:02;2.00;99.90
6146;DHT22;3104;50.348;7.620;2023-04-06T04:24:30;2.10;99.90
6146;DHT22;3104;50.348;7.620;2023-04-06T04:26:56;2.00;99.90
6146;DHT22;3104;50.348;7.620;2023-04-06T04:29:22;2.20;99.90
6146;DHT22;3104;50.348;7.620;2023-04-06T04:31:48;2.20;99.90
6146;DHT22;3104;50.348;7.620;2023-04-06T04:34:14;2.10;99.90
6146;DHT22;3104;50.348;7.620;2023-04-06T04:36:40;2.00;99.90
6146;DHT22;3104;50.348;7.620;2023-04-06T04:39:07;2.10;99.90
6146;DHT22;3104;50.348;7.620;2023-04-06T04:41:33;1.90;99.90
6146;DHT22;3104;50.348;7.620;2023-04-06T04:43:58;2.20;99.90
6146;DHT22;3104;50.348;7.620;2023-04-06T04:46:24;2.20;99.90
6146;DHT22;3104;50.348;7.620;2023-04-06T04:48:50;2.10;99.90
6146;DHT22;3104;50.348;7.620;2023-04-06T04:51:15;2.10;99.90
6146;DHT22;3104;50.348;7.620;2023-04-06T04:53:41;2.30;99.90
6146;DHT22;3104;50.348;7.620;2023-04-06T04:56:06;2.00;99.90
6146;DHT22;3104;50.348;7.620;2023-04-06T04:58:32;2.20;99.90
6146;DHT22;3104;50.348;7.620;2023-04-06T05:00:58;2.10;99.90
6146;DHT22;3104;50.348;7.620;2023-04-06T05:03:25;2.00;99.90
6146;DHT22;3104;50.348;7.620;2023-04-06T05:05:51;1.90;99.90
6146;DHT22;3104;50.348;7.620;2023-04-06T05:08:17;1.80;99.90
6146;DHT22;3104;50.348;7.620;2023-04-06T05:10:43;2.10;99.90
6146;DHT22;3104;50.348;7.620;2023-04-06T05:13:10;2.00;99.90
6146;DHT22;3104;50.348;7.620;2023-04-06T05:15:35;2.10;99.90
6146;DHT22;3104;50.348;7.620;2023-04-06T05:18:04;2.00;99.90
6146;DHT22;3104;50.348;7.620;2023-04-06T05:20:29;1.90;99.90
6146;DHT22;3104;50.348;7.620;2023-04-06T05:22:55;2.00;99.90
6146;DHT22;3104;50.348;7.620;2023-04-06T05:25:21;1.90;99.90
6146;DHT22;3104;50.348;7.620;2023-04-06T05:27:46;2.00;99.90
6146;DHT22;3104;50.348;7.620;2023-04-06T05:30:12;2.00;99.90
6146;DHT22;3104;50.348;7.620;2023-04-06T05:32:38;2.20;99.90
6146;DHT22;3104;50.348;7.620;2023-04-06T05:35:04;2.10;99.90
6146;DHT22;3104;50.348;7.620;2023-04-06T05:37:30;2.20;99.90
6146;DHT22;3104;50.348;7.620;2023-04-06T05:39:55;2.30;99.90
6146;DHT22;3104;50.348;7.620;2023-04-06T05:42:22;2.30;99.90
6146;DHT22;3104;50.348;7.620;2023-04-06T05:44:48;2.30;99.90
6146;DHT22;3104;50.348;7.620;2023-04-06T05:47:14;2.40;99.90
6146;DHT22;3104;50.348;7.620;2023-04-06T05:49:41;2.50;99.90
6146;DHT22;3104;50.348;7.620;2023-04-06T05:52:08;2.40;99.90
6146;DHT22;3104;50.348;7.620;2023-04-06T05:54:34;2.50;99.90
6146;DHT22;3104;50.348;7.620;2023-04-06T05:57:02;2.50;99.90
6146;DHT22;3104;50.348;7.620;2023-04-06T05:59:29;2.60;99.90
6146;DHT22;3104;50.348;7.620;2023-04-06T06:01:54;2.70;99.90
6146;DHT22;3104;50.348;7.620;2023-04-06T06:04:20;2.80;99.90
6146;DHT22;3104;50.348;7.620;2023-04-06T06:06:46;2.80;99.90
6146;DHT22;3104;50.348;7.620;2023-04-06T06:09:11;2.70;99.90
6146;DHT22;3104;50.348;7.620;2023-04-06T06:11:37;2.60;99.90
6146;DHT22;3104;50.348;7.620;2023-04-06T06:14:02;2.70;99.90
6146;DHT22;3104;50.348;7.620;2023-04-06T06:16:28;2.80;99.90
6146;DHT22;3104;50.348;7.620;2023-04-06T06:18:53;2.80;99.90
6146;DHT22;3104;50.348;7.620;2023-04-06T06:21:19;2.90;99.90
6146;DHT22;3104;50.348;7.620;2023-04-06T06:23:45;3.20;99.90
6146;DHT22;3104;50.348;7.620;2023-04-06T06:26:12;3.50;99.90
6146;DHT22;3104;50.348;7.620;2023-04-06T06:28:38;3.50;99.60
6146;DHT22;3104;50.348;7.620;2023-04-06T06:31:03;3.40;99.90
6146;DHT22;3104;50.348;7.620;2023-04-06T06:33:29;3.50;99.90
6146;DHT22;3104;50.348;7.620;2023-04-06T06:35:55;3.50;99.90
6146;DHT22;3104;50.348;7.620;2023-04-06T06:38:20;3.60;99.90
6146;DHT22;3104;50.348;7.620;2023-04-06T06:40:46;3.60;99.90
6146;DHT22;3104;50.348;7.620;2023-04-06T06:43:12;3.70;98.80
6146;DHT22;3104;50.348;7.620;2023-04-06T06:45:37;3.90;99.20
6146;DHT22;3104;50.348;7.620;2023-04-06T06:48:03;4.00;99.90
6146;DHT22;3104;50.348;7.620;2023-04-06T06:50:29;3.90;99.00
6146;DHT22;3104;50.348;7.620;2023-04-06T06:52:54;4.00;99.30
6146;DHT22;3104;50.348;7.620;2023-04-06T06:55:20;4.20;97.40
6146;DHT22;3104;50.348;7.620;2023-04-06T06:57:46;4.20;97.80
6146;DHT22;3104;50.348;7.620;2023-04-06T07:00:12;4.20;96.20
6146;DHT22;3104;50.348;7.620;2023-04-06T07:02:39;4.40;94.20
6146;DHT22;3104;50.348;7.620;2023-04-06T07:05:06;4.50;94.30
6146;DHT22;3104;50.348;7.620;2023-04-06T07:07:32;4.50;94.70
6146;DHT22;3104;50.348;7.620;2023-04-06T07:09:59;4.60;95.50
6146;DHT22;3104;50.348;7.620;2023-04-06T07:12:25;4.70;93.20
6146;DHT22;3104;50.348;7.620;2023-04-06T07:14:51;4.80;92.00
6146;DHT22;3104;50.348;7.620;2023-04-06T07:17:17;5.10;88.50
6146;DHT22;3104;50.348;7.620;2023-04-06T07:19:42;5.50;85.20
6146;DHT22;3104;50.348;7.620;2023-04-06T07:22:08;5.40;78.30
6146;DHT22;3104;50.348;7.620;2023-04-06T07:24:34;5.30;83.30
6146;DHT22;3104;50.348;7.620;2023-04-06T07:27:00;5.10;87.90
6146;DHT22;3104;50.348;7.620;2023-04-06T07:29:28;5.10;88.70
6146;DHT22;3104;50.348;7.620;2023-04-06T07:31:54;5.40;90.50
6146;DHT22;3104;50.348;7.620;2023-04-06T07:34:20;5.70;80.10
6146;DHT22;3104;50.348;7.620;2023-04-06T07:36:46;5.90;77.10
6146;DHT22;3104;50.348;7.620;2023-04-06T07:39:12;6.10;73.30
6146;DHT22;3104;50.348;7.620;2023-04-06T07:41:38;6.00;74.30
6146;DHT22;3104;50.348;7.620;2023-04-06T07:44:03;6.20;79.80
6146;DHT22;3104;50.348;7.620;2023-04-06T07:46:30;6.20;78.90
6146;DHT22;3104;50.348;7.620;2023-04-06T07:48:57;6.10;74.10
6146;DHT22;3104;50.348;7.620;2023-04-06T07:51:23;6.30;79.10
6146;DHT22;3104;50.348;7.620;2023-04-06T07:53:50;6.50;73.10
6146;DHT22;3104;50.348;7.620;2023-04-06T07:56:16;6.70;78.80
6146;DHT22;3104;50.348;7.620;2023-04-06T07:58:42;6.70;80.70
6146;DHT22;3104;50.348;7.620;2023-04-06T08:01:07;6.70;81.90
6146;DHT22;3104;50.348;7.620;2023-04-06T08:03:34;6.60;83.10
6146;DHT22;3104;50.348;7.620;2023-04-06T08:06:00;6.40;88.50
6146;DHT22;3104;50.348;7.620;2023-04-06T08:08:26;6.50;83.30
6146;DHT22;3104;50.348;7.620;2023-04-06T08:10:52;6.60;80.90
6146;DHT22;3104;50.348;7.620;2023-04-06T08:13:18;6.70;81.40
6146;DHT22;3104;50.348;7.620;2023-04-06T08:15:43;6.90;81.70
6146;DHT22;3104;50.348;7.620;2023-04-06T08:18:09;7.10;78.30
6146;DHT22;3104;50.348;7.620;2023-04-06T08:20:35;7.20;74.00
6146;DHT22;3104;50.348;7.620;2023-04-06T08:23:01;7.20;71.80
6146;DHT22;3104;50.348;7.620;2023-04-06T08:25:27;7.40;71.60
6146;DHT22;3104;50.348;7.620;2023-04-06T08:27:52;7.50;62.30
6146;DHT22;3104;50.348;7.620;2023-04-06T08:30:18;7.80;66.60
6146;DHT22;3104;50.348;7.620;2023-04-06T08:32:45;7.90;65.60
6146;DHT22;3104;50.348;7.620;2023-04-06T08:35:10;7.90;68.80
6146;DHT22;3104;50.348;7.620;2023-04-06T08:37:36;8.20;69.70
6146;DHT22;3104;50.348;7.620;2023-04-06T08:40:02;8.30;65.30
6146;DHT22;3104;50.348;7.620;2023-04-06T08:42:32;8.50;57.70
6146;DHT22;3104;50.348;7.620;2023-04-06T08:44:57;8.90;53.60
6146;DHT22;3104;50.348;7.620;2023-04-06T08:47:24;9.50;44.10
6146;DHT22;3104;50.348;7.620;2023-04-06T08:49:50;9.80;42.60
6146;DHT22;3104;50.348;7.620;2023-04-06T08:52:18;10.40;37.60
6146;DHT22;3104;50.348;7.620;2023-04-06T08:54:44;10.70;33.80
6146;DHT22;3104;50.348;7.620;2023-04-06T08:57:10;11.10;29.40
6146;DHT22;3104;50.348;7.620;2023-04-06T08:59:36;11.10;30.70
6146;DHT22;3104;50.348;7.620;2023-04-06T09:02:04;11.70;28.60
6146;DHT22;3104;50.348;7.620;2023-04-06T09:04:33;11.70;24.70
6146;DHT22;3104;50.348;7.620;2023-04-06T09:07:00;11.60;24.30
6146;DHT22;3104;50.348;7.620;2023-04-06T09:09:26;11.50;23.20
6146;DHT22;3104;50.348;7.620;2023-04-06T09:11:52;11.40;25.30
6146;DHT22;3104;50.348;7.620;2023-04-06T09:14:33;11.30;25.10
6146;DHT22;3104;50.348;7.620;2023-04-06T09:17:00;11.30;27.80
6146;DHT22;3104;50.348;7.620;2023-04-06T09:19:25;11.60;24.30
6146;DHT22;3104;50.348;7.620;2023-04-06T09:22:04;11.70;23.70
6146;DHT22;3104;50.348;7.620;2023-04-06T09:27:12;11.40;24.10
6146;DHT22;3104;50.348;7.620;2023-04-06T09:29:37;11.60;24.30
6146;DHT22;3104;50.348;7.620;2023-04-06T09:32:07;11.80;22.90
6146;DHT22;3104;50.348;7.620;2023-04-06T09:34:37;12.20;22.60
6146;DHT22;3104;50.348;7.620;2023-04-06T09:37:32;12.60;20.90
6146;DHT22;3104;50.348;7.620;2023-04-06T09:40:07;12.20;18.40
6146;DHT22;3104;50.348;7.620;2023-04-06T09:42:34;11.90;20.30
6146;DHT22;3104;50.348;7.620;2023-04-06T09:45:01;12.00;21.50
6146;DHT22;3104;50.348;7.620;2023-04-06T09:47:27;12.40;19.00
6146;DHT22;3104;50.348;7.620;2023-04-06T09:49:58;12.60;17.80
6146;DHT22;3104;50.348;7.620;2023-04-06T09:52:52;12.80;16.30
6146;DHT22;3104;50.348;7.620;2023-04-06T09:55:26;12.80;16.10
6146;DHT22;3104;50.348;7.620;2023-04-06T09:58:01;13.10;15.40
6146;DHT22;3104;50.348;7.620;2023-04-06T10:00:31;13.00;13.40
6146;DHT22;3104;50.348;7.620;2023-04-06T10:03:07;13.10;13.00
6146;DHT22;3104;50.348;7.620;2023-04-06T10:08:10;13.30;12.40
6146;DHT22;3104;50.348;7.620;2023-04-06T10:10:37;13.00;12.80
6146;DHT22;3104;50.348;7.620;2023-04-06T10:13:04;13.10;10.00
6146;DHT22;3104;50.348;7.620;2023-04-06T10:15:31;13.60;9.60
6146;DHT22;3104;50.348;7.620;2023-04-06T10:18:00;14.40;8.30
6146;DHT22;3104;50.348;7.620;2023-04-06T10:20:55;13.90;3.60
6146;DHT22;3104;50.348;7.620;2023-04-06T10:26:00;14.20;3.80
6146;DHT22;3104;50.348;7.620;2023-04-06T10:28:31;14.30;3.90
6146;DHT22;3104;50.348;7.620;2023-04-06T10:31:05;14.30;4.60
6146;DHT22;3104;50.348;7.620;2023-04-06T10:33:31;14.00;2.50
6146;DHT22;3104;50.348;7.620;2023-04-06T10:35:57;14.00;1.00
6146;DHT22;3104;50.348;7.620;2023-04-06T10:38:37;13.90;1.10
6146;DHT22;3104;50.348;7.620;2023-04-06T10:41:10;14.10;1.40
6146;DHT22;3104;50.348;7.620;2023-04-06T10:43:38;14.10;1.00
6146;DHT22;3104;50.348;7.620;2023-04-06T10:46:06;14.10;1.00
6146;DHT22;3104;50.348;7.620;2023-04-06T10:48:45;14.40;1.00
6146;DHT22;3104;50.348;7.620;2023-04-06T10:51:16;14.00;1.20
6146;DHT22;3104;50.348;7.620;2023-04-06T10:53:46;13.50;1.00
6146;DHT22;3104;50.348;7.620;2023-04-06T10:56:17;13.50;2.30
6146;DHT22;3104;50.348;7.620;2023-04-06T10:58:51;13.10;3.00
6146;DHT22;3104;50.348;7.620;2023-04-06T11:01:21;13.20;3.40
6146;DHT22;3104;50.348;7.620;2023-04-06T11:03:52;13.00;4.00
6146;DHT22;3104;50.348;7.620;2023-04-06T11:06:23;13.40;3.60
6146;DHT22;3104;50.348;7.620;2023-04-06T11:08:50;13.30;2.40
6146;DHT22;3104;50.348;7.620;2023-04-06T11:11:18;13.30;3.40
6146;DHT22;3104;50.348;7.620;2023-04-06T11:13:52;13.20;1.70
6146;DHT22;3104;50.348;7.620;2023-04-06T11:16:23;12.90;1.70
6146;DHT22;3104;50.348;7.620;2023-04-06T11:18:53;13.30;1.30
6146;DHT22;3104;50.348;7.620;2023-04-06T11:21:31;13.90;1.00
6146;DHT22;3104;50.348;7.620;2023-04-06T11:24:29;14.30;1.00
6146;DHT22;3104;50.348;7.620;2023-04-06T11:26:57;15.10;1.00
6146;DHT22;3104;50.348;7.620;2023-04-06T11:29:25;14.80;1.00
6146;DHT22;3104;50.348;7.620;2023-04-06T11:31:54;14.60;1.00
6146;DHT22;3104;50.348;7.620;2023-04-06T11:34:24;14.10;1.00
6146;DHT22;3104;50.348;7.620;2023-04-06T11:36:56;14.70;1.00
6146;DHT22;3104;50.348;7.620;2023-04-06T11:39:26;14.70;1.00
6146;DHT22;3104;50.348;7.620;2023-04-06T11:41:54;14.90;1.00
6146;DHT22;3104;50.348;7.620;2023-04-06T11:46:57;14.30;1.00
6146;DHT22;3104;50.348;7.620;2023-04-06T11:49:27;14.80;1.00
6146;DHT22;3104;50.348;7.620;2023-04-06T11:51:53;14.50;1.00
6146;DHT22;3104;50.348;7.620;2023-04-06T11:56:58;14.00;1.00
6146;DHT22;3104;50.348;7.620;2023-04-06T11:59:23;14.10;1.00
6146;DHT22;3104;50.348;7.620;2023-04-06T12:01:49;14.30;1.00
6146;DHT22;3104;50.348;7.620;2023-04-06T12:04:14;14.50;1.00
6146;DHT22;3104;50.348;7.620;2023-04-06T12:06:40;14.20;1.00
6146;DHT22;3104;50.348;7.620;2023-04-06T12:09:06;14.30;1.00
6146;DHT22;3104;50.348;7.620;2023-04-06T12:11:32;14.20;1.00
6146;DHT22;3104;50.348;7.620;2023-04-06T12:13:57;14.20;1.00
6146;DHT22;3104;50.348;7.620;2023-04-06T12:16:24;14.50;1.00
6146;DHT22;3104;50.348;7.620;2023-04-06T12:18:51;14.60;1.00
6146;DHT22;3104;50.348;7.620;2023-04-06T12:21:16;14.60;1.00
6146;DHT22;3104;50.348;7.620;2023-04-06T12:23:42;14.40;1.00
6146;DHT22;3104;50.348;7.620;2023-04-06T12:26:07;14.50;1.00
6146;DHT22;3104;50.348;7.620;2023-04-06T12:28:33;14.70;1.00
6146;DHT22;3104;50.348;7.620;2023-04-06T12:30:59;14.80;1.00
6146;DHT22;3104;50.348;7.620;2023-04-06T12:33:25;14.60;1.00
6146;DHT22;3104;50.348;7.620;2023-04-06T12:35:50;14.40;1.00
6146;DHT22;3104;50.348;7.620;2023-04-06T12:38:16;14.40;1.00
6146;DHT22;3104;50.348;7.620;2023-04-06T12:40:42;14.30;1.00
6146;DHT22;3104;50.348;7.620;2023-04-06T12:43:07;14.50;1.00
6146;DHT22;3104;50.348;7.620;2023-04-06T12:45:34;14.60;1.00
6146;DHT22;3104;50.348;7.620;2023-04-06T12:48:00;14.60;1.00
6146;DHT22;3104;50.348;7.620;2023-04-06T12:50:25;14.70;1.00
6146;DHT22;3104;50.348;7.620;2023-04-06T12:52:51;14.40;1.00
6146;DHT22;3104;50.348;7.620;2023-04-06T12:55:17;14.80;1.00
6146;DHT22;3104;50.348;7.620;2023-04-06T12:57:44;14.70;1.00
6146;DHT22;3104;50.348;7.620;2023-04-06T13:00:11;14.40;1.00
6146;DHT22;3104;50.348;7.620;2023-04-06T13:02:36;14.40;1.00
6146;DHT22;3104;50.348;7.620;2023-04-06T13:05:02;14.30;1.00
6146;DHT22;3104;50.348;7.620;2023-04-06T13:07:29;13.90;1.00
6146;DHT22;3104;50.348;7.620;2023-04-06T13:09:55;14.30;1.00
6146;DHT22;3104;50.348;7.620;2023-04-06T13:12:20;14.60;1.00
6146;DHT22;3104;50.348;7.620;2023-04-06T13:14:46;14.40;1.00
6146;DHT22;3104;50.348;7.620;2023-04-06T13:17:16;14.10;1.00
6146;DHT22;3104;50.348;7.620;2023-04-06T13:19:43;14.30;1.00
6146;DHT22;3104;50.348;7.620;2023-04-06T13:22:08;14.30;1.00
6146;DHT22;3104;50.348;7.620;2023-04-06T13:24:34;14.50;1.00
6146;DHT22;3104;50.348;7.620;2023-04-06T13:27:00;14.40;1.00
6146;DHT22;3104;50.348;7.620;2023-04-06T13:29:26;14.30;1.00
6146;DHT22;3104;50.348;7.620;2023-04-06T13:31:52;14.80;1.00
6146;DHT22;3104;50.348;7.620;2023-04-06T13:34:18;15.10;1.00
6146;DHT22;3104;50.348;7.620;2023-04-06T13:36:44;14.80;1.00
6146;DHT22;3104;50.348;7.620;2023-04-06T13:39:09;14.90;1.00
6146;DHT22;3104;50.348;7.620;2023-04-06T13:41:35;14.80;1.00
6146;DHT22;3104;50.348;7.620;2023-04-06T13:44:01;14.80;1.00
6146;DHT22;3104;50.348;7.620;2023-04-06T13:46:27;14.80;1.00
6146;DHT22;3104;50.348;7.620;2023-04-06T13:48:53;14.90;1.00
6146;DHT22;3104;50.348;7.620;2023-04-06T13:51:18;14.70;1.00
6146;DHT22;3104;50.348;7.620;2023-04-06T13:53:44;14.80;1.00
6146;DHT22;3104;50.348;7.620;2023-04-06T13:56:10;14.80;1.00
6146;DHT22;3104;50.348;7.620;2023-04-06T13:58:36;14.70;1.00
6146;DHT22;3104;50.348;7.620;2023-04-06T14:03:28;14.80;1.00
6146;DHT22;3104;50.348;7.620;2023-04-06T14:05:54;14.70;1.00
6146;DHT22;3104;50.348;7.620;2023-04-06T14:08:20;14.60;1.00
6146;DHT22;3104;50.348;7.620;2023-04-06T14:10:46;14.40;1.00
6146;DHT22;3104;50.348;7.620;2023-04-06T14:13:11;14.20;1.00
6146;DHT22;3104;50.348;7.620;2023-04-06T14:15:37;14.00;1.20
6146;DHT22;3104;50.348;7.620;2023-04-06T14:18:02;13.60;2.20
6146;DHT22;3104;50.348;7.620;2023-04-06T14:20:28;13.40;4.30
6146;DHT22;3104;50.348;7.620;2023-04-06T14:22:55;13.40;5.50
6146;DHT22;3104;50.348;7.620;2023-04-06T14:25:21;13.30;5.40
6146;DHT22;3104;50.348;7.620;2023-04-06T14:27:47;13.40;6.80
6146;DHT22;3104;50.348;7.620;2023-04-06T14:30:13;13.50;6.30
6146;DHT22;3104;50.348;7.620;2023-04-06T14:32:39;13.20;7.90
6146;DHT22;3104;50.348;7.620;2023-04-06T14:35:05;13.30;8.80
6146;DHT22;3104;50.348;7.620;2023-04-06T14:37:31;13.60;8.30
6146;DHT22;3104;50.348;7.620;2023-04-06T14:39:56;13.40;10.20
6146;DHT22;3104;50.348;7.620;2023-04-06T14:42:22;13.30;10.10
6146;DHT22;3104;50.348;7.620;2023-04-06T14:44:47;13.40;10.20
6146;DHT22;3104;50.348;7.620;2023-04-06T14:47:14;13.60;10.00
6146;DHT22;3104;50.348;7.620;2023-04-06T14:49:46;13.40;9.10
6146;DHT22;3104;50.348;7.620;2023-04-06T14:52:11;13.50;10.50
6146;DHT22;3104;50.348;7.620;2023-04-06T14:54:37;13.60;9.00
6146;DHT22;3104;50.348;7.620;2023-04-06T14:57:02;13.30;10.60
6146;DHT22;3104;50.348;7.620;2023-04-06T14:59:28;13.10;11.10
6146;DHT22;3104;50.348;7.620;2023-04-06T15:01:54;13.10;13.40
6146;DHT22;3104;50.348;7.620;2023-04-06T15:04:19;13.00;14.30
6146;DHT22;3104;50.348;7.620;2023-04-06T15:06:45;13.00;15.20
6146;DHT22;3104;50.348;7.620;2023-04-06T15:09:11;13.00;16.50
6146;DHT22;3104;50.348;7.620;2023-04-06T15:11:36;13.00;17.20
6146;DHT22;3104;50.348;7.620;2023-04-06T15:14:02;12.90;19.80
6146;DHT22;3104;50.348;7.620;2023-04-06T15:16:27;12.80;20.40
6146;DHT22;3104;50.348;7.620;2023-04-06T15:18:58;12.70;24.60
6146;DHT22;3104;50.348;7.620;2023-04-06T15:21:23;12.60;25.90
6146;DHT22;3104;50.348;7.620;2023-04-06T15:23:50;12.60;26.00
6146;DHT22;3104;50.348;7.620;2023-04-06T15:26:16;12.80;26.50
6146;DHT22;3104;50.348;7.620;2023-04-06T15:28:42;12.70;26.70
6146;DHT22;3104;50.348;7.620;2023-04-06T15:31:18;13.00;27.50
6146;DHT22;3104;50.348;7.620;2023-04-06T15:33:45;12.90;27.80
6146;DHT22;3104;50.348;7.620;2023-04-06T15:36:25;12.70;27.00
6146;DHT22;3104;50.348;7.620;2023-04-06T15:38:52;12.70;27.90
6146;DHT22;3104;50.348;7.620;2023-04-06T15:41:18;12.70;30.10
6146;DHT22;3104;50.348;7.620;2023-04-06T15:43:43;12.60;30.00
6146;DHT22;3104;50.348;7.620;2023-04-06T15:46:09;12.60;32.10
6146;DHT22;3104;50.348;7.620;2023-04-06T15:48:34;12.60;31.70
6146;DHT22;3104;50.348;7.620;2023-04-06T15:51:00;12.60;31.30
6146;DHT22;3104;50.348;7.620;2023-04-06T15:53:27;12.70;33.50
6146;DHT22;3104;50.348;7.620;2023-04-06T15:55:59;12.60;31.80
6146;DHT22;3104;50.348;7.620;2023-04-06T15:58:25;12.70;32.50
6146;DHT22;3104;50.348;7.620;2023-04-06T16:00:50;12.70;33.40
6146;DHT22;3104;50.348;7.620;2023-04-06T16:03:16;12.40;33.30
6146;DHT22;3104;50.348;7.620;2023-04-06T16:05:41;12.30;34.00
6146;DHT22;3104;50.348;7.620;2023-04-06T16:08:07;12.30;36.70
6146;DHT22;3104;50.348;7.620;2023-04-06T16:10:33;12.10;40.80
6146;DHT22;3104;50.348;7.620;2023-04-06T16:12:58;12.00;43.90
6146;DHT22;3104;50.348;7.620;2023-04-06T16:15:24;11.80;45.60
6146;DHT22;3104;50.348;7.620;2023-04-06T16:17:49;11.90;45.50
6146;DHT22;3104;50.348;7.620;2023-04-06T16:20:16;12.10;44.90
6146;DHT22;3104;50.348;7.620;2023-04-06T16:22:41;11.90;47.00
6146;DHT22;3104;50.348;7.620;2023-04-06T16:25:07;11.80;47.60
6146;DHT22;3104;50.348;7.620;2023-04-06T16:27:33;11.70;50.30